Americus, Missouri
Current Conditions -  °F | °C
As of 5:55 PM on Sunday 25 Jan 2015 (Local Time) from KFYG Reporting Station
Light Rain Light Rain  
Wind Chill: -4°   Ceiling: 1100
Heat Index:   Visibility: 7mi
Dew Point:   Wind: 17mph
Humidity: 87%   Direction: 340°NNW
Pressure: 29.88"   Gusts: 24mph
Location:  38.7604°N, 91.5317°W
Report Text: KFYG 252355Z AUTO 34015G21KT 7SM -RA BKN011 02/00 A2988 RMK AO2
Loading
Personal Weather Stations






























Interactive Weather Map New forecast layout! Learn more

10-Day Weather Forecast

Advertisements
Track Severe Weather on mobile